createdAt,value
2023-05-05T00:00:15.891Z,11.50
2023-05-05T00:02:42.647Z,8.35
2023-05-05T00:05:09.520Z,10.32
2023-05-05T00:07:36.049Z,7.03
2023-05-05T00:10:02.717Z,11.23
2023-05-05T00:12:29.259Z,8.73
2023-05-05T00:14:57.079Z,8.57
2023-05-05T00:17:23.570Z,8.68
2023-05-05T00:19:49.984Z,9.00
2023-05-05T00:22:16.457Z,8.75
2023-05-05T00:24:42.856Z,10.90
2023-05-05T00:27:10.372Z,10.07
2023-05-05T00:29:37.810Z,9.73
2023-05-05T00:32:04.391Z,9.07
2023-05-05T00:34:30.857Z,9.50
2023-05-05T00:36:57.354Z,8.90
2023-05-05T00:39:24.230Z,10.93
2023-05-05T00:41:50.736Z,9.32
2023-05-05T00:44:17.132Z,11.15
2023-05-05T00:46:44.031Z,11.27
2023-05-05T00:49:12.122Z,11.20
2023-05-05T00:51:38.612Z,14.30
2023-05-05T00:54:05.709Z,8.75
2023-05-05T00:56:32.351Z,9.48
2023-05-05T00:58:59.382Z,11.73
2023-05-05T01:01:25.821Z,11.85
2023-05-05T01:03:52.522Z,9.77
2023-05-05T01:06:31.719Z,9.20
2023-05-05T01:09:19.801Z,9.00
2023-05-05T01:11:56.526Z,11.63
2023-05-05T01:14:31.925Z,10.05
2023-05-05T01:17:08.569Z,10.25
2023-05-05T01:19:58.763Z,9.40
2023-05-05T01:22:34.882Z,10.52
2023-05-05T01:25:35.074Z,13.15
2023-05-05T01:28:24.103Z,10.95
2023-05-05T01:31:08.864Z,11.40
2023-05-05T01:33:43.883Z,13.25
2023-05-05T01:36:22.455Z,10.60
2023-05-05T01:38:55.739Z,14.07
2023-05-05T01:41:28.343Z,11.07
2023-05-05T01:43:57.043Z,10.60
2023-05-05T01:46:24.558Z,10.13
2023-05-05T01:48:53.685Z,10.32
2023-05-05T01:51:23.160Z,10.63
2023-05-05T01:53:56.604Z,12.40
2023-05-05T01:56:25.085Z,9.95
2023-05-05T01:58:52.796Z,8.27
2023-05-05T02:01:24.821Z,11.70
2023-05-05T02:03:56.882Z,11.02
2023-05-05T02:06:24.649Z,9.90
2023-05-05T02:08:52.967Z,9.10
2023-05-05T02:11:21.696Z,10.95
2023-05-05T02:13:49.981Z,11.70
2023-05-05T02:16:18.571Z,9.38
2023-05-05T02:18:48.602Z,10.77
2023-05-05T02:21:17.881Z,7.82
2023-05-05T02:23:51.604Z,10.43
2023-05-05T02:26:21.817Z,10.45
2023-05-05T02:28:58.382Z,8.73
2023-05-05T02:31:27.696Z,11.55
2023-05-05T02:33:57.284Z,9.35
2023-05-05T02:36:29.336Z,7.53
2023-05-05T02:39:03.493Z,7.65
2023-05-05T02:41:38.237Z,7.20
2023-05-05T02:44:12.484Z,10.10
2023-05-05T02:46:39.383Z,9.02
2023-05-05T02:49:06.213Z,7.82
2023-05-05T02:51:32.711Z,8.68
2023-05-05T02:54:04.100Z,8.50
2023-05-05T02:56:42.908Z,10.23
2023-05-05T02:59:33.472Z,7.32
2023-05-05T03:02:08.150Z,7.53
2023-05-05T03:04:40.360Z,8.98
2023-05-05T03:07:12.244Z,6.70
2023-05-05T03:09:45.469Z,8.25
2023-05-05T03:12:20.209Z,7.18
2023-05-05T03:15:00.717Z,5.75
2023-05-05T03:17:31.632Z,8.60
2023-05-05T03:20:01.621Z,8.77
2023-05-05T03:22:31.319Z,8.10
2023-05-05T03:24:57.838Z,7.97
2023-05-05T03:27:24.582Z,8.93
2023-05-05T03:29:52.570Z,9.48
2023-05-05T03:32:19.883Z,9.55
2023-05-05T03:34:46.455Z,7.30
2023-05-05T03:37:12.962Z,6.18
2023-05-05T03:39:41.384Z,7.63
2023-05-05T03:42:09.350Z,7.82
2023-05-05T03:44:36.050Z,6.65
2023-05-05T03:47:02.561Z,7.90
2023-05-05T03:49:31.660Z,7.18
2023-05-05T03:51:58.401Z,6.85
2023-05-05T03:54:24.939Z,7.80
2023-05-05T03:56:51.836Z,8.23
2023-05-05T03:59:18.344Z,8.30
2023-05-05T04:01:46.536Z,6.78
2023-05-05T04:04:13.108Z,9.30
2023-05-05T04:06:39.589Z,7.50
2023-05-05T04:09:07.097Z,10.18
2023-05-05T04:11:33.566Z,8.95
2023-05-05T04:14:00.675Z,7.65
2023-05-05T04:16:28.991Z,7.97
2023-05-05T04:18:56.195Z,7.75
2023-05-05T04:21:22.739Z,8.55
2023-05-05T04:23:52.801Z,8.65
2023-05-05T04:26:20.936Z,7.90
2023-05-05T04:28:48.512Z,6.95
2023-05-05T04:31:16.182Z,7.10
2023-05-05T04:33:44.146Z,8.63
2023-05-05T04:36:11.088Z,8.23
2023-05-05T04:38:39.974Z,7.93
2023-05-05T04:41:06.919Z,7.70
2023-05-05T04:43:34.795Z,9.13
2023-05-05T04:46:01.707Z,7.20
2023-05-05T04:48:31.323Z,8.55
2023-05-05T04:50:57.751Z,11.52
2023-05-05T04:53:24.274Z,7.70
2023-05-05T04:55:50.751Z,8.65
2023-05-05T04:58:17.681Z,7.97
2023-05-05T05:00:45.109Z,9.35
2023-05-05T05:03:11.985Z,7.55
2023-05-05T05:05:38.561Z,8.52
2023-05-05T05:08:05.482Z,9.85
2023-05-05T05:10:32.157Z,8.90
2023-05-05T05:12:58.648Z,9.88
2023-05-05T05:15:26.703Z,10.10
2023-05-05T05:17:53.503Z,8.60
2023-05-05T05:20:20.925Z,11.45
2023-05-05T05:22:47.422Z,10.18
2023-05-05T05:25:19.967Z,9.77
2023-05-05T05:28:02.012Z,9.27
2023-05-05T05:30:33.312Z,7.63
2023-05-05T05:33:00.373Z,11.98
2023-05-05T05:35:27.799Z,9.60
2023-05-05T05:37:54.480Z,10.10
2023-05-05T05:40:21.085Z,10.13
2023-05-05T05:42:47.664Z,10.02
2023-05-05T05:45:14.225Z,9.73
2023-05-05T05:47:41.047Z,9.20
2023-05-05T05:50:08.709Z,9.15
2023-05-05T05:52:36.204Z,11.73
2023-05-05T05:55:05.812Z,11.23
2023-05-05T05:57:32.410Z,11.70
2023-05-05T06:00:05.313Z,12.07
2023-05-05T06:02:39.363Z,13.48
2023-05-05T06:05:10.482Z,13.45
2023-05-05T06:07:37.019Z,12.43
2023-05-05T06:10:18.399Z,12.10
2023-05-05T06:12:50.500Z,11.40
2023-05-05T06:15:17.542Z,12.80
2023-05-05T06:17:44.146Z,8.63
2023-05-05T06:20:11.317Z,9.52
2023-05-05T06:22:37.795Z,8.52
2023-05-05T06:25:04.657Z,8.73
2023-05-05T06:27:31.240Z,8.30
2023-05-05T06:29:57.650Z,7.15
2023-05-05T06:32:24.183Z,8.52
2023-05-05T06:34:50.740Z,6.93
2023-05-05T06:37:17.213Z,7.57
2023-05-05T06:39:43.772Z,6.18
2023-05-05T06:42:10.214Z,7.07
2023-05-05T06:44:36.688Z,8.73
2023-05-05T06:47:03.960Z,5.88
2023-05-05T06:49:30.436Z,8.73
2023-05-05T06:51:56.982Z,5.75
2023-05-05T06:54:23.601Z,7.68
2023-05-05T06:56:50.028Z,6.75
2023-05-05T06:59:16.545Z,5.03
2023-05-05T07:01:42.933Z,8.65
2023-05-05T07:04:09.436Z,6.97
2023-05-05T07:06:36.256Z,8.23
2023-05-05T07:09:04.300Z,7.95
2023-05-05T07:13:57.543Z,7.40
2023-05-05T07:16:25.273Z,8.18
2023-05-05T07:18:51.704Z,5.82
2023-05-05T07:21:18.170Z,6.13
2023-05-05T07:23:46.178Z,6.65
2023-05-05T07:26:12.792Z,6.78
2023-05-05T07:28:39.279Z,8.18
2023-05-05T07:31:05.907Z,7.18
2023-05-05T07:33:32.324Z,6.03
2023-05-05T07:35:58.812Z,5.30
2023-05-05T07:38:25.702Z,4.95
2023-05-05T07:40:52.105Z,6.63
2023-05-05T07:43:18.554Z,5.03
2023-05-05T07:45:45.095Z,5.15
2023-05-05T07:48:11.657Z,4.70
2023-05-05T07:50:38.149Z,4.80
2023-05-05T07:53:13.631Z,5.50
2023-05-05T07:55:40.652Z,6.38
2023-05-05T07:58:07.484Z,5.97
2023-05-05T08:00:34.057Z,5.63
2023-05-05T08:03:00.742Z,5.55
2023-05-05T08:05:27.358Z,4.85
2023-05-05T08:07:53.878Z,4.80
2023-05-05T08:10:22.335Z,5.30
2023-05-05T08:12:49.096Z,3.70
2023-05-05T08:15:16.008Z,4.45
2023-05-05T08:17:51.517Z,4.50
2023-05-05T08:20:19.520Z,7.53
2023-05-05T08:22:46.796Z,6.30
2023-05-05T08:25:13.837Z,4.43
2023-05-05T08:27:41.525Z,4.60
2023-05-05T08:30:10.786Z,4.57
2023-05-05T08:32:38.602Z,2.70
2023-05-05T08:35:06.571Z,5.20
2023-05-05T08:37:33.491Z,5.05
2023-05-05T08:40:01.471Z,3.78
2023-05-05T08:42:37.796Z,4.18
2023-05-05T08:45:07.580Z,3.38
2023-05-05T08:47:38.080Z,4.07
2023-05-05T08:50:06.811Z,3.17
2023-05-05T08:52:41.857Z,3.97
2023-05-05T08:55:24.739Z,3.92
2023-05-05T08:57:56.741Z,5.30
2023-05-05T09:00:26.886Z,4.85
2023-05-05T09:02:56.735Z,4.72
2023-05-05T09:05:23.471Z,5.75
2023-05-05T09:07:50.565Z,5.72
2023-05-05T09:10:18.041Z,4.05
2023-05-05T09:12:44.639Z,3.58
2023-05-05T09:15:13.643Z,3.97
2023-05-05T09:17:40.801Z,3.88
2023-05-05T09:20:12.444Z,3.92
2023-05-05T09:22:44.146Z,3.78
2023-05-05T09:25:12.633Z,2.30
2023-05-05T09:27:42.213Z,4.20
2023-05-05T09:30:11.141Z,5.38
2023-05-05T09:32:49.129Z,4.78
2023-05-05T09:35:16.858Z,4.13
2023-05-05T09:37:43.980Z,5.30
2023-05-05T09:40:11.861Z,4.28
2023-05-05T09:42:41.468Z,3.95
2023-05-05T09:45:22.919Z,4.88
2023-05-05T09:47:49.567Z,3.33
2023-05-05T09:50:20.889Z,3.72
2023-05-05T09:52:59.003Z,6.15
2023-05-05T09:55:25.905Z,5.18
2023-05-05T09:57:52.632Z,6.82
2023-05-05T10:00:19.670Z,4.10
2023-05-05T10:02:46.453Z,7.13
2023-05-05T10:05:18.155Z,7.32
2023-05-05T10:07:46.804Z,6.50
2023-05-05T10:10:16.200Z,7.80
2023-05-05T10:12:43.323Z,7.53
2023-05-05T10:15:11.625Z,6.47
2023-05-05T10:18:02.365Z,3.72
2023-05-05T10:20:33.308Z,3.92
2023-05-05T10:23:02.797Z,17.65
2023-05-05T10:25:31.447Z,12.40
2023-05-05T10:28:01.161Z,6.53
2023-05-05T10:30:34.279Z,8.15
2023-05-05T10:33:22.292Z,5.88
2023-05-05T10:35:53.806Z,4.05
2023-05-05T10:40:50.963Z,26.95
2023-05-05T10:43:17.874Z,7.63
2023-05-05T10:45:44.867Z,25.77
2023-05-05T10:48:27.355Z,5.63
2023-05-05T10:51:01.822Z,3.90
2023-05-05T10:56:05.829Z,4.43
2023-05-05T10:58:55.649Z,4.22
2023-05-05T11:01:35.642Z,6.95
2023-05-05T11:04:21.388Z,3.33
2023-05-05T11:07:13.456Z,5.85
2023-05-05T11:10:15.595Z,4.93
2023-05-05T11:12:52.410Z,6.20
2023-05-05T11:15:31.314Z,4.80
2023-05-05T11:17:59.430Z,3.88
2023-05-05T11:20:35.012Z,3.50
2023-05-05T11:23:05.208Z,7.65
2023-05-05T11:25:35.066Z,5.88
2023-05-05T11:28:08.322Z,5.85
2023-05-05T11:30:36.672Z,6.65
2023-05-05T11:33:25.714Z,5.93
2023-05-05T11:36:12.110Z,4.93
2023-05-05T11:39:00.143Z,7.15
2023-05-05T11:41:33.044Z,7.75
2023-05-05T11:44:12.446Z,8.68
2023-05-05T11:47:07.812Z,6.57
2023-05-05T11:49:38.908Z,12.35
2023-05-05T11:52:08.205Z,8.75
2023-05-05T11:54:36.224Z,6.40
2023-05-05T11:57:05.434Z,8.68
2023-05-05T11:59:32.606Z,6.60
2023-05-05T12:01:59.549Z,9.15
2023-05-05T12:04:26.592Z,8.70
2023-05-05T12:06:55.252Z,7.93
2023-05-05T12:09:23.079Z,5.43
2023-05-05T12:11:56.603Z,4.85
2023-05-05T12:14:25.432Z,3.85
2023-05-05T12:16:58.110Z,6.53
2023-05-05T12:19:29.738Z,5.10
2023-05-05T12:21:56.988Z,7.35
2023-05-05T12:24:23.656Z,6.55
2023-05-05T12:26:50.147Z,5.38
2023-05-05T12:29:29.434Z,4.70
2023-05-05T12:31:57.792Z,5.13
2023-05-05T12:34:24.507Z,4.15
2023-05-05T12:36:51.164Z,7.95
2023-05-05T12:39:17.854Z,4.38
2023-05-05T12:41:45.962Z,6.85
2023-05-05T12:44:12.545Z,7.07
2023-05-05T12:46:46.636Z,5.88
2023-05-05T12:49:13.341Z,7.28
2023-05-05T12:51:52.936Z,4.10
2023-05-05T12:54:19.612Z,5.18
2023-05-05T12:56:47.660Z,5.82
2023-05-05T12:59:23.374Z,6.78
2023-05-05T13:01:57.030Z,5.90
2023-05-05T13:04:25.159Z,6.28
2023-05-05T13:07:11.631Z,4.60
2023-05-05T13:09:38.601Z,6.82
2023-05-05T13:12:05.784Z,10.52
2023-05-05T13:14:32.405Z,5.13
2023-05-05T13:16:58.825Z,6.35
2023-05-05T13:19:25.653Z,8.20
2023-05-05T13:21:52.730Z,6.22
2023-05-05T13:24:31.067Z,6.28
2023-05-05T13:27:00.461Z,7.13
2023-05-05T13:29:31.140Z,6.80
2023-05-05T13:31:58.019Z,6.78
2023-05-05T13:34:25.684Z,7.47
2023-05-05T13:36:52.297Z,6.82
2023-05-05T13:39:20.363Z,5.55
2023-05-05T13:41:46.865Z,5.03
2023-05-05T13:44:13.979Z,6.25
2023-05-05T13:46:42.151Z,6.55
2023-05-05T13:49:08.656Z,4.53
2023-05-05T13:51:35.263Z,4.47
2023-05-05T13:54:01.965Z,5.13
2023-05-05T13:56:28.506Z,4.90
2023-05-05T13:58:55.000Z,4.18
2023-05-05T14:01:21.496Z,5.35
2023-05-05T14:03:48.076Z,3.47
2023-05-05T14:06:14.631Z,2.85
2023-05-05T14:08:41.484Z,3.85
2023-05-05T14:11:07.979Z,3.15
2023-05-05T14:13:34.598Z,3.70
2023-05-05T14:16:02.640Z,3.92
2023-05-05T14:18:29.634Z,4.47
2023-05-05T14:20:56.180Z,2.65
2023-05-05T14:23:22.635Z,2.75
2023-05-05T14:25:49.143Z,2.45
2023-05-05T14:28:15.995Z,2.95
2023-05-05T14:30:42.659Z,3.33
2023-05-05T14:33:09.146Z,3.42
2023-05-05T14:35:35.817Z,2.55
2023-05-05T14:38:02.355Z,5.22
2023-05-05T14:40:30.182Z,2.95
2023-05-05T14:42:57.663Z,2.30
2023-05-05T14:45:24.142Z,2.95
2023-05-05T14:47:50.870Z,2.58
2023-05-05T14:50:17.410Z,2.88
2023-05-05T14:52:44.393Z,3.97
2023-05-05T14:55:11.727Z,2.65
2023-05-05T14:57:38.744Z,2.95
2023-05-05T15:00:07.085Z,2.40
2023-05-05T15:02:33.761Z,2.38
2023-05-05T15:05:01.976Z,2.75
2023-05-05T15:07:29.052Z,3.22
2023-05-05T15:09:58.128Z,4.80
2023-05-05T15:12:25.919Z,2.05
2023-05-05T15:14:52.384Z,2.50
2023-05-05T15:17:18.855Z,1.88
2023-05-05T15:19:45.300Z,2.88
2023-05-05T15:22:11.769Z,1.70
2023-05-05T15:24:38.349Z,2.28
2023-05-05T15:27:05.079Z,4.05
2023-05-05T15:29:31.629Z,2.35
2023-05-05T15:31:58.183Z,2.35
2023-05-05T15:34:24.971Z,2.75
2023-05-05T15:36:51.508Z,2.30
2023-05-05T15:39:17.974Z,2.65
2023-05-05T15:41:44.427Z,4.00
2023-05-05T15:44:12.553Z,3.20
2023-05-05T15:46:41.660Z,2.05
2023-05-05T15:49:08.412Z,2.20
2023-05-05T15:51:35.035Z,1.88
2023-05-05T15:54:01.983Z,2.40
2023-05-05T15:56:29.295Z,2.58
2023-05-05T15:58:56.639Z,1.90
2023-05-05T16:01:23.243Z,2.55
2023-05-05T16:03:49.762Z,1.95
2023-05-05T16:06:16.294Z,2.17
2023-05-05T16:08:47.635Z,2.35
2023-05-05T16:11:14.357Z,2.22
2023-05-05T16:13:42.406Z,3.97
2023-05-05T16:16:08.905Z,3.00
2023-05-05T16:18:35.456Z,3.15
2023-05-05T16:21:02.554Z,2.33
2023-05-05T16:23:29.048Z,2.30
2023-05-05T16:25:55.556Z,3.47
2023-05-05T16:28:22.074Z,2.20
2023-05-05T16:30:48.616Z,3.00
2023-05-05T16:33:17.797Z,2.88
2023-05-05T16:35:45.719Z,2.53
2023-05-05T16:38:13.260Z,1.75
2023-05-05T16:40:40.095Z,2.63
2023-05-05T16:43:06.567Z,3.17
2023-05-05T16:45:33.082Z,2.83
2023-05-05T16:48:00.267Z,2.45
2023-05-05T16:50:26.749Z,2.45
2023-05-05T16:52:54.533Z,3.22
2023-05-05T16:55:20.951Z,2.95
2023-05-05T16:57:47.904Z,1.38
2023-05-05T17:00:15.443Z,3.03
2023-05-05T17:02:41.889Z,1.70
2023-05-05T17:05:09.091Z,1.85
2023-05-05T17:07:36.014Z,1.83
2023-05-05T17:10:03.851Z,3.88
2023-05-05T17:12:30.351Z,1.30
2023-05-05T17:14:56.794Z,1.52
2023-05-05T17:17:23.227Z,1.65
2023-05-05T17:19:50.002Z,1.42
2023-05-05T17:22:16.451Z,1.73
2023-05-05T17:24:43.072Z,1.42
2023-05-05T17:27:09.685Z,2.28
2023-05-05T17:29:40.703Z,2.17
2023-05-05T17:32:08.217Z,2.42
2023-05-05T17:34:34.858Z,2.88
2023-05-05T17:37:01.892Z,1.58
2023-05-05T17:39:28.591Z,2.25
2023-05-05T17:41:55.037Z,1.58
2023-05-05T17:44:21.647Z,1.67
2023-05-05T17:46:48.155Z,1.30
2023-05-05T17:49:14.617Z,1.52
2023-05-05T17:51:41.159Z,2.13
2023-05-05T17:54:07.554Z,1.98
2023-05-05T17:56:35.892Z,1.40
2023-05-05T17:59:02.389Z,2.15
2023-05-05T18:01:28.875Z,2.90
2023-05-05T18:03:55.691Z,1.88
2023-05-05T18:06:22.144Z,1.52
2023-05-05T18:08:49.260Z,2.35
2023-05-05T18:11:15.752Z,1.70
2023-05-05T18:13:43.115Z,2.60
2023-05-05T18:16:09.631Z,2.58
2023-05-05T18:18:36.278Z,2.63
2023-05-05T18:21:02.848Z,1.98
2023-05-05T18:23:29.345Z,2.22
2023-05-05T18:25:56.821Z,2.97
2023-05-05T18:28:23.266Z,1.75
2023-05-05T18:30:49.738Z,2.63
2023-05-05T18:33:16.200Z,2.67
2023-05-05T18:35:42.969Z,2.88
2023-05-05T18:38:09.459Z,2.05
2023-05-05T18:40:36.866Z,2.00
2023-05-05T18:43:03.559Z,2.95
2023-05-05T18:45:30.087Z,2.35
2023-05-05T18:47:56.685Z,1.92
2023-05-05T18:50:24.521Z,2.65
2023-05-05T18:52:52.638Z,2.50
2023-05-05T18:55:19.203Z,2.95
2023-05-05T18:57:45.786Z,2.08
2023-05-05T19:00:12.590Z,1.58
2023-05-05T19:02:39.116Z,2.58
2023-05-05T19:05:06.415Z,2.85
2023-05-05T19:07:35.848Z,2.30
2023-05-05T19:10:04.650Z,2.28
2023-05-05T19:12:31.301Z,4.60
2023-05-05T19:14:57.816Z,3.38
2023-05-05T19:17:24.443Z,3.05
2023-05-05T19:19:51.060Z,2.17
2023-05-05T19:22:17.663Z,2.33
2023-05-05T19:24:44.150Z,3.58
2023-05-05T19:27:15.435Z,2.95
2023-05-05T19:29:43.143Z,3.08
2023-05-05T19:32:09.883Z,2.42
2023-05-05T19:34:36.560Z,2.63
2023-05-05T19:37:03.326Z,4.53
2023-05-05T19:39:29.834Z,3.30
2023-05-05T19:41:56.244Z,4.82
2023-05-05T19:44:22.838Z,4.70
2023-05-05T19:46:50.189Z,5.22
2023-05-05T19:49:16.947Z,4.07
2023-05-05T19:51:43.743Z,4.00
2023-05-05T19:54:10.476Z,4.50
2023-05-05T19:56:37.081Z,3.72
2023-05-05T19:59:06.065Z,3.65
2023-05-05T20:01:33.889Z,3.45
2023-05-05T20:04:00.916Z,5.47
2023-05-05T20:06:27.611Z,3.60
2023-05-05T20:08:55.302Z,6.47
2023-05-05T20:11:22.223Z,4.43
2023-05-05T20:13:50.757Z,4.40
2023-05-05T20:16:18.481Z,6.18
2023-05-05T20:18:45.182Z,4.38
2023-05-05T20:21:11.809Z,3.10
2023-05-05T20:23:38.336Z,4.88
2023-05-05T20:26:05.411Z,4.85
2023-05-05T20:28:32.203Z,4.18
2023-05-05T20:31:00.462Z,4.20
2023-05-05T20:33:28.126Z,4.18
2023-05-05T20:35:54.867Z,4.38
2023-05-05T20:38:21.271Z,4.25
2023-05-05T20:40:47.860Z,3.63
2023-05-05T20:43:14.375Z,4.70
2023-05-05T20:45:41.151Z,4.18
2023-05-05T20:48:10.051Z,5.97
2023-05-05T20:53:08.505Z,4.65
2023-05-05T20:55:35.499Z,4.35
2023-05-05T20:58:02.242Z,7.70
2023-05-05T21:00:28.800Z,5.22
2023-05-05T21:02:56.773Z,4.00
2023-05-05T21:05:23.905Z,5.20
2023-05-05T21:07:51.011Z,7.05
2023-05-05T21:10:17.483Z,6.07
2023-05-05T21:12:44.053Z,5.72
2023-05-05T21:15:11.343Z,4.22
2023-05-05T21:17:38.359Z,7.82
2023-05-05T21:20:05.262Z,6.88
2023-05-05T21:22:31.854Z,4.10
2023-05-05T21:25:11.024Z,5.38
2023-05-05T21:27:37.587Z,5.15
2023-05-05T21:30:04.482Z,4.63
2023-05-05T21:32:31.414Z,5.05
2023-05-05T21:34:58.045Z,4.15
2023-05-05T21:37:24.509Z,4.95
2023-05-05T21:39:50.990Z,6.80
2023-05-05T21:42:17.467Z,5.47
2023-05-05T21:44:43.886Z,4.82
2023-05-05T21:47:10.308Z,6.40
2023-05-05T21:49:36.842Z,4.90
2023-05-05T21:52:03.342Z,4.53
2023-05-05T21:54:30.087Z,5.72
2023-05-05T21:56:56.539Z,7.65
2023-05-05T21:59:23.052Z,4.82
2023-05-05T22:01:49.596Z,4.65
2023-05-05T22:04:16.118Z,4.82
2023-05-05T22:06:42.549Z,5.78
2023-05-05T22:09:09.009Z,5.28
2023-05-05T22:11:35.611Z,5.03
2023-05-05T22:14:02.164Z,4.60
2023-05-05T22:16:28.954Z,5.75
2023-05-05T22:18:55.449Z,5.30
2023-05-05T22:21:22.091Z,5.65
2023-05-05T22:23:48.611Z,5.03
2023-05-05T22:26:15.244Z,5.82
2023-05-05T22:28:42.846Z,6.72
2023-05-05T22:31:09.329Z,4.90
2023-05-05T22:33:36.165Z,6.50
2023-05-05T22:36:02.657Z,5.50
2023-05-05T22:38:29.430Z,5.68
2023-05-05T22:40:55.989Z,5.93
2023-05-05T22:43:22.533Z,5.72
2023-05-05T22:45:49.125Z,5.95
2023-05-05T22:48:15.572Z,5.43
2023-05-05T22:50:42.152Z,6.90
2023-05-05T22:53:08.631Z,5.88
2023-05-05T22:55:35.207Z,5.63
2023-05-05T22:58:01.693Z,5.88
2023-05-05T23:00:28.289Z,5.95
2023-05-05T23:02:55.108Z,4.78
2023-05-05T23:05:22.891Z,7.15
2023-05-05T23:07:49.405Z,5.22
2023-05-05T23:10:16.330Z,8.55
2023-05-05T23:12:42.820Z,5.97
2023-05-05T23:15:09.966Z,6.47
2023-05-05T23:17:36.605Z,5.70
2023-05-05T23:20:04.227Z,4.95
2023-05-05T23:22:30.758Z,6.80
2023-05-05T23:24:57.257Z,7.47
2023-05-05T23:27:23.938Z,6.60
2023-05-05T23:29:51.682Z,8.02
2023-05-05T23:32:18.213Z,6.40
2023-05-05T23:34:44.699Z,7.97
2023-05-05T23:37:13.054Z,9.00
2023-05-05T23:39:39.738Z,7.43
2023-05-05T23:42:06.196Z,11.15
2023-05-05T23:44:32.670Z,11.10
2023-05-05T23:46:59.098Z,10.55
2023-05-05T23:49:26.390Z,10.30
2023-05-05T23:51:52.994Z,9.70
2023-05-05T23:54:19.419Z,12.38
2023-05-05T23:56:47.684Z,8.77
2023-05-05T23:59:14.183Z,8.60
